This is the latest recevied weather packets stored in our database for station/object JA0ZJX-13. If no packets are shown the sender has not sent any weather packets the latest 10 day(s).
| Time | Temp. | Humidity | Pressure | Rain* | Wind** | Luminosity | Snow |
|---|---|---|---|---|---|---|---|
| 1777741419 | 12.78° C | 71% | 1013.3 hPa | 0 mm | - | 0 W/m² | - |
| 1777740808 | 12.78° C | 70% | 1013.5 hPa | 0 mm | - | 0 W/m² | - |
| 1777740218 | 13.33° C | 69% | 1013.4 hPa | 0 mm | - | 0 W/m² | - |
| 1777739612 | 12.78° C | 70% | 1013 hPa | 0 mm | - | 0 W/m² | - |
| 1777739022 | 12.78° C | 71% | 1013 hPa | 0 mm | - | 0 W/m² | - |
| 1777738411 | 12.22° C | 71% | 1013.3 hPa | 0 mm | - | 0 W/m² | - |
| 1777737824 | 12.78° C | 71% | 1013.2 hPa | 0 mm | - | 0 W/m² | - |
| 1777737213 | 12.78° C | 70% | 1013.5 hPa | 0 mm | - | 0 W/m² | - |
| 1777736623 | 12.78° C | 70% | 1013.5 hPa | 0 mm | - | 0 W/m² | - |
| 1777736012 | 12.22° C | 70% | 1013.5 hPa | 0 mm | - | 0 W/m² | - |
| 1777735406 | 12.78° C | 70% | 1013.4 hPa | 0 mm | - | 0 W/m² | - |
| 1777734815 | 12.78° C | 70% | 1013.4 hPa | 0 mm | - | 0 W/m² | - |
| 1777734224 | 12.78° C | 70% | 1013.6 hPa | 0 mm | - | 0 W/m² | - |
| 1777733005 | 12.78° C | 68% | 1013.8 hPa | 0 mm | - | 0 W/m² | - |
| 1777732414 | 13.33° C | 67% | 1013.9 hPa | 0 mm | - | 0 W/m² | - |
| 1777731824 | 13.89° C | 66% | 1013.7 hPa | 0 mm | - | 0 W/m² | - |
| 1777731218 | 13.89° C | 65% | 1013.8 hPa | 0 mm | - | 0 W/m² | - |
| 1777730605 | 14.44° C | 63% | 1013.7 hPa | 0 mm | - | 0 W/m² | - |
| 1777730015 | 13.89° C | 63% | 1013.7 hPa | 0 mm | - | 0 W/m² | - |
| 1777729404 | 13.89° C | 65% | 1013.8 hPa | 0 mm | - | 0 W/m² | - |
| 1777728819 | 14.44° C | 63% | 1013.6 hPa | 0 mm | - | 0 W/m² | - |
| 1777728209 | 15° C | 60% | 1013.4 hPa | 0 mm | - | 0 W/m² | - |
| 1777727607 | 15° C | 60% | 1013.4 hPa | 0 mm | - | 0 W/m² | - |
| 1777727008 | 15° C | 61% | 1013.3 hPa | 0 mm | - | 0 W/m² | - |
| 1777726417 | 15° C | 61% | 1013.4 hPa | 0 mm | - | 0 W/m² | - |
* Rain latest hour (hover to see other rain measurements)
** Current wind speed in m/s (hover to see current wind gust speed)